createdAt,value
2022-08-03T00:01:40.265Z,82.28
2022-08-03T00:04:42.766Z,81.55
2022-08-03T00:07:44.965Z,80.73
2022-08-03T00:10:47.792Z,82.83
2022-08-03T00:13:50.134Z,82.07
2022-08-03T00:16:52.529Z,82.28
2022-08-03T00:19:54.714Z,81.68
2022-08-03T00:22:57.031Z,81.37
2022-08-03T00:26:00.220Z,84.04
2022-08-03T00:29:02.676Z,83.16
2022-08-03T00:32:05.130Z,81.07
2022-08-03T00:35:09.130Z,82.21
2022-08-03T00:38:12.632Z,83.95
2022-08-03T00:41:15.653Z,83.32
2022-08-03T00:44:17.949Z,84.43
2022-08-03T00:47:20.333Z,87.17
2022-08-03T00:50:24.241Z,86.86
2022-08-03T00:53:27.741Z,86.65
2022-08-03T00:56:30.064Z,86.79
2022-08-03T00:59:32.649Z,85.48
2022-08-03T01:02:35.737Z,83.84
2022-08-03T01:05:56.499Z,84.16
2022-08-03T01:09:17.273Z,86.37
2022-08-03T01:12:33.246Z,85.59
2022-08-03T01:15:58.804Z,84.80
2022-08-03T01:19:22.782Z,84.34
2022-08-03T01:22:50.146Z,85.03
2022-08-03T01:26:28.195Z,84.36
2022-08-03T01:29:55.019Z,83.12
2022-08-03T01:33:17.763Z,84.39
2022-08-03T01:36:23.479Z,84.24
2022-08-03T01:39:26.632Z,85.04
2022-08-03T01:42:29.769Z,84.99
2022-08-03T01:45:34.246Z,85.35
2022-08-03T01:48:38.789Z,87.33
2022-08-03T01:52:03.549Z,86.15
2022-08-03T01:55:06.435Z,84.47
2022-08-03T01:58:08.885Z,84.64
2022-08-03T02:01:12.047Z,85.12
2022-08-03T02:04:17.833Z,87.43
2022-08-03T02:07:20.199Z,90.54
2022-08-03T02:10:35.136Z,90.26
2022-08-03T02:13:38.533Z,88.18
2022-08-03T02:16:41.077Z,86.09
2022-08-03T02:19:43.851Z,86.29
2022-08-03T02:22:46.854Z,86.80
2022-08-03T02:25:53.245Z,89.31
2022-08-03T02:28:58.113Z,88.45
2022-08-03T02:32:04.517Z,86.91
2022-08-03T02:35:11.423Z,86.34
2022-08-03T02:38:14.364Z,85.36
2022-08-03T02:41:18.535Z,85.14
2022-08-03T02:44:26.643Z,85.06
2022-08-03T02:47:53.863Z,87.43
2022-08-03T02:50:53.544Z,87.27
2022-08-03T02:53:57.002Z,86.80
2022-08-03T02:56:59.858Z,86.17
2022-08-03T03:00:02.369Z,87.39
2022-08-03T03:03:04.746Z,87.57
2022-08-03T03:06:08.265Z,86.28
2022-08-03T03:09:11.162Z,86.17
2022-08-03T03:12:14.571Z,86.35
2022-08-03T03:15:16.812Z,85.98
2022-08-03T03:18:22.785Z,87.50
2022-08-03T03:21:25.418Z,87.83
2022-08-03T03:24:31.233Z,86.06
2022-08-03T03:27:34.115Z,87.05
2022-08-03T03:30:36.618Z,87.21
2022-08-03T03:33:39.180Z,86.58
2022-08-03T03:36:41.760Z,86.79
2022-08-03T03:39:44.219Z,86.19
2022-08-03T03:42:46.787Z,87.52
2022-08-03T03:45:49.527Z,88.53
2022-08-03T03:48:52.065Z,89.77
2022-08-03T03:51:55.608Z,90.06
2022-08-03T03:55:01.028Z,91.50
2022-08-03T03:58:04.213Z,92.55
2022-08-03T04:01:06.730Z,93.20
2022-08-03T04:04:27.741Z,92.74
2022-08-03T04:07:55.552Z,91.73
2022-08-03T04:11:31.705Z,92.21
2022-08-03T04:14:35.439Z,92.57
2022-08-03T04:17:37.546Z,91.83
2022-08-03T04:20:41.020Z,91.55
2022-08-03T04:23:45.228Z,92.63
2022-08-03T04:26:52.723Z,91.01
2022-08-03T04:29:57.502Z,91.64
2022-08-03T04:33:01.279Z,90.03
2022-08-03T04:36:07.283Z,89.82
2022-08-03T04:39:20.347Z,87.79
2022-08-03T04:42:24.868Z,89.26
2022-08-03T04:45:28.227Z,88.10
2022-08-03T04:48:30.468Z,87.35
2022-08-03T04:51:34.882Z,86.87
2022-08-03T04:54:50.018Z,87.05
2022-08-03T04:57:53.362Z,87.34
2022-08-03T05:00:55.630Z,87.99
2022-08-03T05:03:58.023Z,89.60
2022-08-03T05:07:00.243Z,90.12
2022-08-03T05:10:18.129Z,92.57
2022-08-03T05:13:20.910Z,91.35
2022-08-03T05:16:23.623Z,92.48
2022-08-03T05:19:25.782Z,94.02
2022-08-03T05:22:28.131Z,94.61
2022-08-03T05:25:30.683Z,94.77
2022-08-03T05:28:33.214Z,95.75
2022-08-03T05:31:35.551Z,96.65
2022-08-03T05:34:38.183Z,97.19
2022-08-03T05:37:40.351Z,95.64
2022-08-03T05:41:21.060Z,96.49
2022-08-03T05:44:20.345Z,98.00
2022-08-03T05:47:22.796Z,98.35
2022-08-03T05:50:25.161Z,97.17
2022-08-03T05:53:27.627Z,95.83
2022-08-03T05:56:30.006Z,96.00
2022-08-03T05:59:39.475Z,95.82
2022-08-03T06:02:54.729Z,97.01
2022-08-03T06:06:00.370Z,94.69
2022-08-03T06:09:02.930Z,93.20
2022-08-03T06:12:05.638Z,93.24
2022-08-03T06:15:11.550Z,94.33
2022-08-03T06:18:14.477Z,94.73
2022-08-03T06:21:16.674Z,94.92
2022-08-03T06:24:19.161Z,95.59
2022-08-03T06:27:36.315Z,94.95
2022-08-03T06:30:40.560Z,94.20
2022-08-03T06:34:30.882Z,93.41
2022-08-03T06:37:05.358Z,91.92
2022-08-03T06:40:08.105Z,93.51
2022-08-03T06:43:12.506Z,96.05
2022-08-03T06:46:15.274Z,94.06
2022-08-03T06:49:17.983Z,88.41
2022-08-03T06:52:37.936Z,88.62
2022-08-03T06:55:42.513Z,82.99
2022-08-03T06:58:44.775Z,84.74
2022-08-03T07:01:47.268Z,85.25
2022-08-03T07:04:49.766Z,85.00
2022-08-03T07:07:56.720Z,85.25
2022-08-03T07:10:58.841Z,86.04
2022-08-03T07:14:01.307Z,84.55
2022-08-03T07:17:04.622Z,85.30
2022-08-03T07:20:15.292Z,86.01
2022-08-03T07:23:19.104Z,85.07
2022-08-03T07:26:22.006Z,80.23
2022-08-03T07:29:24.151Z,78.84
2022-08-03T07:32:27.167Z,79.21
2022-08-03T07:35:29.403Z,75.52
2022-08-03T07:38:31.894Z,76.26
2022-08-03T07:41:34.181Z,68.42
2022-08-03T07:44:36.920Z,64.16
2022-08-03T07:47:39.205Z,66.07
2022-08-03T07:50:41.679Z,61.36
2022-08-03T07:53:47.385Z,63.15
2022-08-03T07:56:50.405Z,56.24
2022-08-03T08:00:01.820Z,56.46
2022-08-03T08:03:14.549Z,56.78
2022-08-03T08:06:17.986Z,52.22
2022-08-03T08:09:20.709Z,51.15
2022-08-03T08:12:22.931Z,51.85
2022-08-03T08:15:25.555Z,54.79
2022-08-03T08:18:29.772Z,50.71
2022-08-03T08:21:52.921Z,47.89
2022-08-03T08:24:54.613Z,51.69
2022-08-03T08:28:29.587Z,45.15
2022-08-03T08:31:20.855Z,49.21
2022-08-03T08:34:23.622Z,48.19
2022-08-03T08:37:25.949Z,45.03
2022-08-03T08:40:28.992Z,45.35
2022-08-03T08:43:31.533Z,40.13
2022-08-03T08:46:34.442Z,37.43
2022-08-03T08:49:39.166Z,39.03
2022-08-03T08:52:42.377Z,39.78
2022-08-03T08:55:57.955Z,32.38
2022-08-03T08:59:03.085Z,38.74
2022-08-03T09:02:06.137Z,35.60
2022-08-03T09:05:16.983Z,39.39
2022-08-03T09:08:19.477Z,36.67
2022-08-03T09:12:00.819Z,35.94
2022-08-03T09:15:07.614Z,35.35
2022-08-03T09:18:09.765Z,39.76
2022-08-03T09:21:31.574Z,37.31
2022-08-03T09:24:41.249Z,34.83
2022-08-03T09:27:45.321Z,33.30
2022-08-03T09:30:59.652Z,33.50
2022-08-03T09:34:05.779Z,28.97
2022-08-03T09:37:18.482Z,30.74
2022-08-03T09:40:41.368Z,29.32
2022-08-03T09:43:47.577Z,31.14
2022-08-03T09:46:52.055Z,29.66
2022-08-03T09:50:02.264Z,32.16
2022-08-03T09:53:04.766Z,30.36
2022-08-03T09:56:36.006Z,28.70
2022-08-03T09:59:31.416Z,30.45
2022-08-03T10:02:34.222Z,34.89
2022-08-03T10:05:36.977Z,28.14
2022-08-03T10:08:39.607Z,28.40
2022-08-03T10:11:43.646Z,29.36
2022-08-03T10:14:46.770Z,33.33
2022-08-03T10:17:48.981Z,31.67
2022-08-03T10:20:57.296Z,29.09
2022-08-03T10:24:00.060Z,30.43
2022-08-03T10:27:07.115Z,32.58
2022-08-03T10:30:11.506Z,29.73
2022-08-03T10:33:51.590Z,29.69
2022-08-03T10:36:53.745Z,30.69
2022-08-03T10:39:58.448Z,30.85
2022-08-03T10:43:09.179Z,28.86
2022-08-03T10:46:11.861Z,31.70
2022-08-03T10:49:33.711Z,29.70
2022-08-03T10:52:57.133Z,28.14
2022-08-03T10:56:25.408Z,30.38
2022-08-03T11:00:00.219Z,28.91
2022-08-03T11:03:16.193Z,30.27
2022-08-03T11:06:24.726Z,29.04
2022-08-03T11:09:44.537Z,29.25
2022-08-03T11:12:47.719Z,29.36
2022-08-03T11:15:53.158Z,31.62
2022-08-03T11:19:09.136Z,30.43
2022-08-03T11:22:11.793Z,30.76
2022-08-03T11:25:53.779Z,31.62
2022-08-03T11:28:40.357Z,30.03
2022-08-03T11:31:51.501Z,29.85
2022-08-03T11:35:36.714Z,31.47
2022-08-03T11:39:13.220Z,28.93
2022-08-03T11:42:22.382Z,32.82
2022-08-03T11:45:25.138Z,30.25
2022-08-03T11:48:34.556Z,29.48
2022-08-03T11:51:37.909Z,29.60
2022-08-03T11:54:41.012Z,29.76
2022-08-03T11:59:18.698Z,31.04
2022-08-03T12:01:07.940Z,30.41
2022-08-03T12:04:11.742Z,30.84
2022-08-03T12:07:13.995Z,32.57
2022-08-03T12:10:37.475Z,33.75
2022-08-03T12:14:43.877Z,32.21
2022-08-03T12:17:06.922Z,31.14
2022-08-03T12:20:34.783Z,30.79
2022-08-03T12:23:39.389Z,28.42
2022-08-03T12:26:58.988Z,31.66
2022-08-03T12:30:03.618Z,31.14
2022-08-03T12:33:34.805Z,31.57
2022-08-03T12:36:39.199Z,29.80
2022-08-03T12:40:02.566Z,31.28
2022-08-03T12:43:12.499Z,31.65
2022-08-03T12:46:16.609Z,32.30
2022-08-03T12:49:20.281Z,31.81
2022-08-03T12:52:23.692Z,31.74
2022-08-03T12:55:56.279Z,30.91
2022-08-03T12:58:58.915Z,32.48
2022-08-03T13:02:02.017Z,31.16
2022-08-03T13:05:14.321Z,32.33
2022-08-03T13:08:21.333Z,33.32
2022-08-03T13:11:55.948Z,32.76
2022-08-03T13:14:50.896Z,34.66
2022-08-03T13:17:53.176Z,34.66
2022-08-03T13:20:55.697Z,31.57
2022-08-03T13:23:58.033Z,31.03
2022-08-03T13:27:22.097Z,34.04
2022-08-03T13:30:29.789Z,33.57
2022-08-03T13:33:33.747Z,32.20
2022-08-03T13:36:59.391Z,35.23
2022-08-03T13:40:02.717Z,33.27
2022-08-03T13:43:05.586Z,33.76
2022-08-03T13:46:08.246Z,33.11
2022-08-03T13:49:10.627Z,34.21
2022-08-03T13:52:13.254Z,34.59
2022-08-03T13:55:15.629Z,34.70
2022-08-03T13:58:18.137Z,33.67
2022-08-03T14:01:53.692Z,35.35
2022-08-03T14:04:43.057Z,34.53
2022-08-03T14:07:45.449Z,34.00
2022-08-03T14:10:48.103Z,34.30
2022-08-03T14:13:50.517Z,32.90
2022-08-03T14:16:53.236Z,33.05
2022-08-03T14:19:59.123Z,32.57
2022-08-03T14:23:03.007Z,32.87
2022-08-03T14:26:06.727Z,34.65
2022-08-03T14:29:09.212Z,32.65
2022-08-03T14:32:13.499Z,35.08
2022-08-03T14:35:16.160Z,35.61
2022-08-03T14:38:19.313Z,33.62
2022-08-03T14:41:21.976Z,34.68
2022-08-03T14:44:24.354Z,36.12
2022-08-03T14:47:27.144Z,33.69
2022-08-03T14:50:42.898Z,33.40
2022-08-03T14:53:47.193Z,33.80
2022-08-03T14:56:49.568Z,35.18
2022-08-03T14:59:56.771Z,38.01
2022-08-03T15:02:59.797Z,34.91
2022-08-03T15:06:02.392Z,37.07
2022-08-03T15:09:21.388Z,35.58
2022-08-03T15:12:26.213Z,35.74
2022-08-03T15:15:28.490Z,36.19
2022-08-03T15:18:31.017Z,36.42
2022-08-03T15:21:46.833Z,35.37
2022-08-03T15:24:50.516Z,34.64
2022-08-03T15:28:03.425Z,35.26
2022-08-03T15:31:07.488Z,34.45
2022-08-03T15:34:11.880Z,35.90
2022-08-03T15:37:16.320Z,36.39
2022-08-03T15:40:19.509Z,34.36
2022-08-03T15:43:23.266Z,36.19
2022-08-03T15:46:29.946Z,34.96
2022-08-03T15:49:32.878Z,35.21
2022-08-03T15:52:36.760Z,34.93
2022-08-03T15:55:40.511Z,35.22
2022-08-03T15:59:04.068Z,34.54
2022-08-03T16:02:05.583Z,33.91
2022-08-03T16:05:08.554Z,36.09
2022-08-03T16:08:13.860Z,35.49
2022-08-03T16:11:16.552Z,36.48
2022-08-03T16:14:32.020Z,36.66
2022-08-03T16:17:39.012Z,36.28
2022-08-03T16:20:41.791Z,37.57
2022-08-03T16:23:47.347Z,38.96
2022-08-03T16:26:50.067Z,37.54
2022-08-03T16:29:52.517Z,37.58
2022-08-03T16:32:54.997Z,39.82
2022-08-03T16:35:57.342Z,37.61
2022-08-03T16:38:59.934Z,37.39
2022-08-03T16:42:02.501Z,37.77
2022-08-03T16:45:06.756Z,36.58
2022-08-03T16:48:09.244Z,36.57
2022-08-03T16:51:11.797Z,37.95
2022-08-03T16:54:15.583Z,42.54
2022-08-03T16:57:56.028Z,42.48
2022-08-03T17:00:46.420Z,42.20
2022-08-03T17:04:01.252Z,42.66
2022-08-03T17:07:05.239Z,43.47
2022-08-03T17:10:08.599Z,44.38
2022-08-03T17:13:11.104Z,44.79
2022-08-03T17:16:15.326Z,44.68
2022-08-03T17:19:18.468Z,45.61
2022-08-03T17:22:25.614Z,45.49
2022-08-03T17:25:39.678Z,46.46
2022-08-03T17:28:57.353Z,46.28
2022-08-03T17:32:06.507Z,46.86
2022-08-03T17:35:12.731Z,47.99
2022-08-03T17:38:22.416Z,48.33
2022-08-03T17:41:26.401Z,48.04
2022-08-03T17:44:41.273Z,48.56
2022-08-03T17:47:57.112Z,49.33
2022-08-03T17:51:04.356Z,49.54
2022-08-03T17:54:30.639Z,51.12
2022-08-03T17:58:02.721Z,51.52
2022-08-03T18:02:02.054Z,51.76
2022-08-03T18:04:57.362Z,52.25
2022-08-03T18:08:06.937Z,52.37
2022-08-03T18:11:16.288Z,52.54
2022-08-03T18:14:32.529Z,52.83
2022-08-03T18:17:55.108Z,53.32
2022-08-03T18:21:06.475Z,52.81
2022-08-03T18:24:11.462Z,52.85
2022-08-03T18:27:15.854Z,53.12
2022-08-03T18:30:18.197Z,54.14
2022-08-03T18:34:17.132Z,54.01
2022-08-03T18:36:49.597Z,54.69
2022-08-03T18:39:55.269Z,54.51
2022-08-03T18:43:08.867Z,56.52
2022-08-03T18:46:30.225Z,57.48
2022-08-03T18:49:36.084Z,58.28
2022-08-03T18:52:57.830Z,58.44
2022-08-03T18:56:04.124Z,59.11
2022-08-03T18:59:30.124Z,59.42
2022-08-03T19:02:50.085Z,58.64
2022-08-03T19:06:17.489Z,59.55
2022-08-03T19:09:41.168Z,58.62
2022-08-03T19:12:56.004Z,59.08
2022-08-03T19:16:08.809Z,59.53
2022-08-03T19:19:22.745Z,59.62
2022-08-03T19:22:33.066Z,60.31
2022-08-03T19:25:42.765Z,60.47
2022-08-03T19:28:55.143Z,60.77
2022-08-03T19:32:07.848Z,61.41
2022-08-03T19:35:13.481Z,62.09
2022-08-03T19:38:31.962Z,61.84
2022-08-03T19:41:41.987Z,62.71
2022-08-03T19:44:50.997Z,63.15
2022-08-03T19:48:08.045Z,63.48
2022-08-03T19:51:12.769Z,63.03
2022-08-03T19:54:29.429Z,64.33
2022-08-03T19:57:34.898Z,64.08
2022-08-03T20:00:40.095Z,64.33
2022-08-03T20:03:52.737Z,64.88
2022-08-03T20:07:04.719Z,63.66
2022-08-03T20:10:17.805Z,64.92
2022-08-03T20:13:28.343Z,66.28
2022-08-03T20:16:31.665Z,65.79
2022-08-03T20:19:35.166Z,65.56
2022-08-03T20:22:46.173Z,66.92
2022-08-03T20:29:17.912Z,67.31
2022-08-03T20:32:24.698Z,67.35
2022-08-03T20:35:32.121Z,68.25
2022-08-03T20:38:35.080Z,68.14
2022-08-03T20:41:46.704Z,68.18
2022-08-03T20:45:04.264Z,68.82
2022-08-03T20:48:12.884Z,69.09
2022-08-03T20:51:49.129Z,69.31
2022-08-03T20:54:44.924Z,68.47
2022-08-03T20:57:51.830Z,70.20
2022-08-03T21:00:56.974Z,69.96
2022-08-03T21:03:59.246Z,69.77
2022-08-03T21:07:16.651Z,69.11
2022-08-03T21:10:21.174Z,69.75
2022-08-03T21:13:06.880Z,66.24
2022-08-03T21:13:56.620Z,69.99
2022-08-03T21:16:59.023Z,70.34
2022-08-03T21:20:03.287Z,70.98
2022-08-03T21:23:10.058Z,72.35
2022-08-03T21:26:34.045Z,72.07
2022-08-03T21:29:53.319Z,71.52
2022-08-03T21:32:58.146Z,72.10
2022-08-03T21:36:02.081Z,71.75
2022-08-03T21:39:09.229Z,72.36
2022-08-03T21:42:12.990Z,73.44
2022-08-03T21:45:17.653Z,73.47
2022-08-03T21:48:21.774Z,73.79
2022-08-03T21:51:26.013Z,73.34
2022-08-03T21:54:36.834Z,72.75
2022-08-03T21:57:44.736Z,73.96
2022-08-03T22:00:47.577Z,74.71
2022-08-03T22:03:54.039Z,74.44
2022-08-03T22:06:56.863Z,75.84
2022-08-03T22:10:01.146Z,75.79
2022-08-03T22:13:03.686Z,76.46
2022-08-03T22:16:07.060Z,76.49
2022-08-03T22:19:09.341Z,76.12
2022-08-03T22:22:13.983Z,76.53
2022-08-03T22:25:16.646Z,76.63
2022-08-03T22:28:20.368Z,75.16
2022-08-03T22:31:57.220Z,76.43
2022-08-03T22:34:46.897Z,76.56
2022-08-03T22:37:49.968Z,76.98
2022-08-03T22:40:55.177Z,76.25
2022-08-03T22:43:58.901Z,76.17
2022-08-03T22:47:07.948Z,76.39
2022-08-03T22:50:32.429Z,76.15
2022-08-03T22:53:36.163Z,76.60
2022-08-03T22:56:39.073Z,76.07
2022-08-03T22:59:42.128Z,76.22
2022-08-03T23:02:48.130Z,77.51
2022-08-03T23:06:01.276Z,77.16
2022-08-03T23:09:10.345Z,78.16
2022-08-03T23:12:18.398Z,79.51
2022-08-03T23:15:20.892Z,79.37
2022-08-03T23:18:24.180Z,78.31
2022-08-03T23:21:53.805Z,78.54
2022-08-03T23:24:51.351Z,77.65
2022-08-03T23:28:04.538Z,77.84
2022-08-03T23:31:08.707Z,77.78
2022-08-03T23:34:31.653Z,78.06
2022-08-03T23:38:21.622Z,78.63
2022-08-03T23:40:59.415Z,78.89
2022-08-03T23:44:03.651Z,77.56
2022-08-03T23:47:06.012Z,78.08
2022-08-03T23:50:08.520Z,79.07
2022-08-03T23:53:39.957Z,78.04
2022-08-03T23:56:51.666Z,77.85
